sensor_id;sensor_type;location;lat;lon;timestamp;P1;durP1;ratioP1;P2;durP2;ratioP2
13269;SDS011;6703;51.994;7.570;2022-12-18T00:01:19;27.48;;;10.43;;
13269;SDS011;6703;51.994;7.570;2022-12-18T00:03:49;31.80;;;10.85;;
13269;SDS011;6703;51.994;7.570;2022-12-18T00:06:18;35.30;;;14.23;;
13269;SDS011;6703;51.994;7.570;2022-12-18T00:08:46;37.07;;;12.43;;
13269;SDS011;6703;51.994;7.570;2022-12-18T00:11:14;31.52;;;12.75;;
13269;SDS011;6703;51.994;7.570;2022-12-18T00:13:43;41.13;;;11.13;;
13269;SDS011;6703;51.994;7.570;2022-12-18T00:16:11;32.50;;;11.30;;
13269;SDS011;6703;51.994;7.570;2022-12-18T00:18:40;30.90;;;11.60;;
13269;SDS011;6703;51.994;7.570;2022-12-18T00:21:12;36.15;;;10.88;;
13269;SDS011;6703;51.994;7.570;2022-12-18T00:23:41;32.55;;;11.10;;
13269;SDS011;6703;51.994;7.570;2022-12-18T00:26:11;36.83;;;12.88;;
13269;SDS011;6703;51.994;7.570;2022-12-18T00:28:44;38.40;;;12.95;;
13269;SDS011;6703;51.994;7.570;2022-12-18T00:31:12;39.83;;;11.68;;
13269;SDS011;6703;51.994;7.570;2022-12-18T00:33:42;35.65;;;11.52;;
13269;SDS011;6703;51.994;7.570;2022-12-18T00:36:12;37.25;;;12.48;;
13269;SDS011;6703;51.994;7.570;2022-12-18T00:38:42;39.35;;;13.68;;
13269;SDS011;6703;51.994;7.570;2022-12-18T00:41:11;43.27;;;13.23;;
13269;SDS011;6703;51.994;7.570;2022-12-18T00:43:40;37.72;;;12.73;;
13269;SDS011;6703;51.994;7.570;2022-12-18T00:46:07;37.72;;;13.43;;
13269;SDS011;6703;51.994;7.570;2022-12-18T00:48:34;35.63;;;12.23;;
13269;SDS011;6703;51.994;7.570;2022-12-18T00:51:02;40.45;;;12.85;;
13269;SDS011;6703;51.994;7.570;2022-12-18T00:53:31;45.73;;;13.33;;
13269;SDS011;6703;51.994;7.570;2022-12-18T00:56:00;32.60;;;12.13;;
13269;SDS011;6703;51.994;7.570;2022-12-18T00:58:28;39.70;;;12.73;;
13269;SDS011;6703;51.994;7.570;2022-12-18T01:00:56;36.75;;;11.95;;
13269;SDS011;6703;51.994;7.570;2022-12-18T01:03:24;34.28;;;11.65;;
13269;SDS011;6703;51.994;7.570;2022-12-18T01:05:51;42.42;;;13.70;;
13269;SDS011;6703;51.994;7.570;2022-12-18T01:08:19;39.97;;;15.25;;
13269;SDS011;6703;51.994;7.570;2022-12-18T01:10:48;34.30;;;12.00;;
13269;SDS011;6703;51.994;7.570;2022-12-18T01:13:16;40.53;;;14.48;;
13269;SDS011;6703;51.994;7.570;2022-12-18T01:15:47;39.80;;;13.85;;
13269;SDS011;6703;51.994;7.570;2022-12-18T01:18:15;36.97;;;12.50;;
13269;SDS011;6703;51.994;7.570;2022-12-18T01:20:43;35.45;;;11.95;;
13269;SDS011;6703;51.994;7.570;2022-12-18T01:23:11;36.20;;;11.38;;
13269;SDS011;6703;51.994;7.570;2022-12-18T01:25:38;28.83;;;11.82;;
13269;SDS011;6703;51.994;7.570;2022-12-18T01:28:08;29.55;;;11.50;;
13269;SDS011;6703;51.994;7.570;2022-12-18T01:30:35;38.43;;;11.80;;
13269;SDS011;6703;51.994;7.570;2022-12-18T01:33:03;39.20;;;11.93;;
13269;SDS011;6703;51.994;7.570;2022-12-18T01:35:31;36.03;;;11.73;;
13269;SDS011;6703;51.994;7.570;2022-12-18T01:37:59;30.73;;;12.13;;
13269;SDS011;6703;51.994;7.570;2022-12-18T01:40:27;32.90;;;12.73;;
13269;SDS011;6703;51.994;7.570;2022-12-18T01:42:55;39.47;;;12.15;;
13269;SDS011;6703;51.994;7.570;2022-12-18T01:45:26;35.90;;;13.55;;
13269;SDS011;6703;51.994;7.570;2022-12-18T01:47:55;37.88;;;13.55;;
13269;SDS011;6703;51.994;7.570;2022-12-18T01:50:24;36.25;;;12.90;;
13269;SDS011;6703;51.994;7.570;2022-12-18T01:52:55;33.47;;;11.63;;
13269;SDS011;6703;51.994;7.570;2022-12-18T01:55:26;32.20;;;11.67;;
13269;SDS011;6703;51.994;7.570;2022-12-18T01:57:56;38.30;;;12.93;;
13269;SDS011;6703;51.994;7.570;2022-12-18T02:00:26;35.78;;;13.02;;
13269;SDS011;6703;51.994;7.570;2022-12-18T02:02:54;31.17;;;10.55;;
13269;SDS011;6703;51.994;7.570;2022-12-18T02:05:24;34.55;;;11.75;;
13269;SDS011;6703;51.994;7.570;2022-12-18T02:07:58;36.22;;;11.25;;
13269;SDS011;6703;51.994;7.570;2022-12-18T02:10:34;36.70;;;12.25;;
13269;SDS011;6703;51.994;7.570;2022-12-18T02:13:06;37.05;;;12.88;;
13269;SDS011;6703;51.994;7.570;2022-12-18T02:15:43;35.20;;;13.20;;
13269;SDS011;6703;51.994;7.570;2022-12-18T02:18:15;32.70;;;11.52;;
13269;SDS011;6703;51.994;7.570;2022-12-18T02:20:47;41.45;;;12.98;;
13269;SDS011;6703;51.994;7.570;2022-12-18T02:23:19;30.95;;;11.52;;
13269;SDS011;6703;51.994;7.570;2022-12-18T02:26:00;31.10;;;12.48;;
13269;SDS011;6703;51.994;7.570;2022-12-18T02:28:34;35.22;;;11.23;;
13269;SDS011;6703;51.994;7.570;2022-12-18T02:31:04;37.40;;;12.23;;
13269;SDS011;6703;51.994;7.570;2022-12-18T02:33:34;34.40;;;13.18;;
13269;SDS011;6703;51.994;7.570;2022-12-18T02:36:04;35.92;;;12.15;;
13269;SDS011;6703;51.994;7.570;2022-12-18T02:38:33;39.45;;;13.27;;
13269;SDS011;6703;51.994;7.570;2022-12-18T02:41:02;39.42;;;13.35;;
13269;SDS011;6703;51.994;7.570;2022-12-18T02:43:30;34.08;;;12.90;;
13269;SDS011;6703;51.994;7.570;2022-12-18T02:45:58;47.70;;;14.43;;
13269;SDS011;6703;51.994;7.570;2022-12-18T02:48:29;41.50;;;13.25;;
13269;SDS011;6703;51.994;7.570;2022-12-18T02:51:00;37.55;;;12.13;;
13269;SDS011;6703;51.994;7.570;2022-12-18T02:53:32;39.05;;;13.38;;
13269;SDS011;6703;51.994;7.570;2022-12-18T02:56:06;37.80;;;12.33;;
13269;SDS011;6703;51.994;7.570;2022-12-18T02:58:39;40.10;;;13.68;;
13269;SDS011;6703;51.994;7.570;2022-12-18T03:01:15;45.53;;;13.33;;
13269;SDS011;6703;51.994;7.570;2022-12-18T03:03:46;43.13;;;13.32;;
13269;SDS011;6703;51.994;7.570;2022-12-18T03:06:17;33.80;;;12.52;;
13269;SDS011;6703;51.994;7.570;2022-12-18T03:08:49;42.38;;;13.32;;
13269;SDS011;6703;51.994;7.570;2022-12-18T03:11:24;33.80;;;12.67;;
13269;SDS011;6703;51.994;7.570;2022-12-18T03:14:07;37.22;;;12.20;;
13269;SDS011;6703;51.994;7.570;2022-12-18T03:16:35;42.13;;;12.07;;
13269;SDS011;6703;51.994;7.570;2022-12-18T03:19:04;27.25;;;10.68;;
13269;SDS011;6703;51.994;7.570;2022-12-18T03:21:37;28.17;;;11.63;;
13269;SDS011;6703;51.994;7.570;2022-12-18T03:24:08;29.58;;;12.73;;
13269;SDS011;6703;51.994;7.570;2022-12-18T03:26:39;34.95;;;11.27;;
13269;SDS011;6703;51.994;7.570;2022-12-18T03:29:09;34.63;;;12.10;;
13269;SDS011;6703;51.994;7.570;2022-12-18T03:31:40;34.85;;;11.18;;
13269;SDS011;6703;51.994;7.570;2022-12-18T03:34:09;30.15;;;11.82;;
13269;SDS011;6703;51.994;7.570;2022-12-18T03:36:40;30.52;;;11.55;;
13269;SDS011;6703;51.994;7.570;2022-12-18T03:39:08;34.33;;;12.00;;
13269;SDS011;6703;51.994;7.570;2022-12-18T03:41:39;33.05;;;11.20;;
13269;SDS011;6703;51.994;7.570;2022-12-18T03:44:11;35.72;;;13.05;;
13269;SDS011;6703;51.994;7.570;2022-12-18T03:46:41;35.85;;;11.73;;
13269;SDS011;6703;51.994;7.570;2022-12-18T03:49:14;31.50;;;11.95;;
13269;SDS011;6703;51.994;7.570;2022-12-18T03:51:48;34.10;;;11.23;;
13269;SDS011;6703;51.994;7.570;2022-12-18T03:54:18;33.35;;;10.35;;
13269;SDS011;6703;51.994;7.570;2022-12-18T03:56:51;34.42;;;11.75;;
13269;SDS011;6703;51.994;7.570;2022-12-18T03:59:22;34.93;;;11.30;;
13269;SDS011;6703;51.994;7.570;2022-12-18T04:01:51;37.87;;;11.93;;
13269;SDS011;6703;51.994;7.570;2022-12-18T04:04:19;37.65;;;12.20;;
13269;SDS011;6703;51.994;7.570;2022-12-18T04:06:47;26.00;;;9.70;;
13269;SDS011;6703;51.994;7.570;2022-12-18T04:09:16;29.87;;;10.43;;
13269;SDS011;6703;51.994;7.570;2022-12-18T04:11:45;35.60;;;10.60;;
13269;SDS011;6703;51.994;7.570;2022-12-18T04:14:15;26.30;;;10.95;;
13269;SDS011;6703;51.994;7.570;2022-12-18T04:16:43;25.05;;;9.25;;
13269;SDS011;6703;51.994;7.570;2022-12-18T04:19:11;33.60;;;10.10;;
13269;SDS011;6703;51.994;7.570;2022-12-18T04:21:39;28.70;;;9.10;;
13269;SDS011;6703;51.994;7.570;2022-12-18T04:24:06;18.67;;;7.75;;
13269;SDS011;6703;51.994;7.570;2022-12-18T04:26:34;27.55;;;8.45;;
13269;SDS011;6703;51.994;7.570;2022-12-18T04:29:02;29.05;;;9.63;;
13269;SDS011;6703;51.994;7.570;2022-12-18T04:31:31;30.38;;;10.05;;
13269;SDS011;6703;51.994;7.570;2022-12-18T04:33:59;28.30;;;9.55;;
13269;SDS011;6703;51.994;7.570;2022-12-18T04:36:26;29.00;;;9.80;;
13269;SDS011;6703;51.994;7.570;2022-12-18T04:38:54;31.30;;;9.70;;
13269;SDS011;6703;51.994;7.570;2022-12-18T04:41:22;37.53;;;11.70;;
13269;SDS011;6703;51.994;7.570;2022-12-18T04:43:50;33.10;;;10.90;;
13269;SDS011;6703;51.994;7.570;2022-12-18T04:46:18;30.27;;;10.80;;
13269;SDS011;6703;51.994;7.570;2022-12-18T04:48:47;25.90;;;10.23;;
13269;SDS011;6703;51.994;7.570;2022-12-18T04:51:15;25.48;;;8.98;;
13269;SDS011;6703;51.994;7.570;2022-12-18T04:53:52;31.63;;;9.38;;
13269;SDS011;6703;51.994;7.570;2022-12-18T04:56:19;23.85;;;8.55;;
13269;SDS011;6703;51.994;7.570;2022-12-18T04:58:47;28.43;;;9.63;;
13269;SDS011;6703;51.994;7.570;2022-12-18T05:01:16;28.33;;;9.70;;
13269;SDS011;6703;51.994;7.570;2022-12-18T05:03:44;21.87;;;7.97;;
13269;SDS011;6703;51.994;7.570;2022-12-18T05:06:14;28.10;;;8.63;;
13269;SDS011;6703;51.994;7.570;2022-12-18T05:08:41;22.20;;;8.40;;
13269;SDS011;6703;51.994;7.570;2022-12-18T05:11:10;22.95;;;7.82;;
13269;SDS011;6703;51.994;7.570;2022-12-18T05:13:40;20.98;;;7.90;;
13269;SDS011;6703;51.994;7.570;2022-12-18T05:16:08;20.52;;;8.15;;
13269;SDS011;6703;51.994;7.570;2022-12-18T05:18:36;29.67;;;9.00;;
13269;SDS011;6703;51.994;7.570;2022-12-18T05:21:05;21.60;;;8.00;;
13269;SDS011;6703;51.994;7.570;2022-12-18T05:23:34;25.40;;;8.20;;
13269;SDS011;6703;51.994;7.570;2022-12-18T05:26:03;22.40;;;9.07;;
13269;SDS011;6703;51.994;7.570;2022-12-18T05:28:33;29.17;;;8.85;;
13269;SDS011;6703;51.994;7.570;2022-12-18T05:31:02;33.10;;;9.10;;
13269;SDS011;6703;51.994;7.570;2022-12-18T05:33:31;25.48;;;8.65;;
13269;SDS011;6703;51.994;7.570;2022-12-18T05:36:01;30.58;;;10.27;;
13269;SDS011;6703;51.994;7.570;2022-12-18T05:38:30;31.63;;;10.98;;
13269;SDS011;6703;51.994;7.570;2022-12-18T05:40:59;33.38;;;10.27;;
13269;SDS011;6703;51.994;7.570;2022-12-18T05:43:27;23.05;;;9.05;;
13269;SDS011;6703;51.994;7.570;2022-12-18T05:45:55;26.45;;;10.15;;
13269;SDS011;6703;51.994;7.570;2022-12-18T05:48:23;23.47;;;8.70;;
13269;SDS011;6703;51.994;7.570;2022-12-18T05:50:51;25.45;;;8.18;;
13269;SDS011;6703;51.994;7.570;2022-12-18T05:53:19;25.45;;;8.38;;
13269;SDS011;6703;51.994;7.570;2022-12-18T05:55:47;26.60;;;8.98;;
13269;SDS011;6703;51.994;7.570;2022-12-18T05:58:16;22.17;;;7.78;;
13269;SDS011;6703;51.994;7.570;2022-12-18T06:00:44;22.55;;;7.47;;
13269;SDS011;6703;51.994;7.570;2022-12-18T06:03:13;22.07;;;8.67;;
13269;SDS011;6703;51.994;7.570;2022-12-18T06:05:42;28.75;;;8.38;;
13269;SDS011;6703;51.994;7.570;2022-12-18T06:08:11;26.00;;;8.03;;
13269;SDS011;6703;51.994;7.570;2022-12-18T06:10:40;24.67;;;8.80;;
13269;SDS011;6703;51.994;7.570;2022-12-18T06:13:07;23.02;;;9.02;;
13269;SDS011;6703;51.994;7.570;2022-12-18T06:15:37;23.55;;;8.77;;
13269;SDS011;6703;51.994;7.570;2022-12-18T06:18:05;22.83;;;8.23;;
13269;SDS011;6703;51.994;7.570;2022-12-18T06:20:33;24.23;;;8.65;;
13269;SDS011;6703;51.994;7.570;2022-12-18T06:23:02;29.13;;;9.57;;
13269;SDS011;6703;51.994;7.570;2022-12-18T06:25:30;28.88;;;9.50;;
13269;SDS011;6703;51.994;7.570;2022-12-18T06:27:58;29.53;;;10.57;;
13269;SDS011;6703;51.994;7.570;2022-12-18T06:30:26;23.90;;;8.73;;
13269;SDS011;6703;51.994;7.570;2022-12-18T06:32:55;30.17;;;8.57;;
13269;SDS011;6703;51.994;7.570;2022-12-18T06:35:22;22.88;;;8.57;;
13269;SDS011;6703;51.994;7.570;2022-12-18T06:37:50;31.92;;;9.13;;
13269;SDS011;6703;51.994;7.570;2022-12-18T06:40:18;21.42;;;9.18;;
13269;SDS011;6703;51.994;7.570;2022-12-18T06:42:46;27.02;;;8.68;;
13269;SDS011;6703;51.994;7.570;2022-12-18T06:45:13;26.65;;;8.77;;
13269;SDS011;6703;51.994;7.570;2022-12-18T06:47:41;24.65;;;8.65;;
13269;SDS011;6703;51.994;7.570;2022-12-18T06:50:11;35.35;;;10.13;;
13269;SDS011;6703;51.994;7.570;2022-12-18T06:52:40;26.85;;;9.27;;
13269;SDS011;6703;51.994;7.570;2022-12-18T06:55:10;30.17;;;8.90;;
13269;SDS011;6703;51.994;7.570;2022-12-18T06:57:38;27.63;;;9.20;;
13269;SDS011;6703;51.994;7.570;2022-12-18T07:00:06;24.38;;;9.13;;
13269;SDS011;6703;51.994;7.570;2022-12-18T07:02:35;25.08;;;9.23;;
13269;SDS011;6703;51.994;7.570;2022-12-18T07:05:03;24.85;;;8.50;;
13269;SDS011;6703;51.994;7.570;2022-12-18T07:07:37;23.33;;;9.02;;
13269;SDS011;6703;51.994;7.570;2022-12-18T07:10:05;27.52;;;9.30;;
13269;SDS011;6703;51.994;7.570;2022-12-18T07:12:33;25.63;;;9.20;;
13269;SDS011;6703;51.994;7.570;2022-12-18T07:15:00;29.45;;;9.35;;
13269;SDS011;6703;51.994;7.570;2022-12-18T07:17:29;23.65;;;8.27;;
13269;SDS011;6703;51.994;7.570;2022-12-18T07:19:56;23.20;;;8.55;;
13269;SDS011;6703;51.994;7.570;2022-12-18T07:22:24;21.90;;;9.05;;
13269;SDS011;6703;51.994;7.570;2022-12-18T07:24:53;22.38;;;8.75;;
13269;SDS011;6703;51.994;7.570;2022-12-18T07:27:21;25.40;;;9.25;;
13269;SDS011;6703;51.994;7.570;2022-12-18T07:29:49;34.88;;;9.52;;
13269;SDS011;6703;51.994;7.570;2022-12-18T07:32:17;26.75;;;9.57;;
13269;SDS011;6703;51.994;7.570;2022-12-18T07:34:44;22.75;;;9.55;;
13269;SDS011;6703;51.994;7.570;2022-12-18T07:37:12;24.15;;;9.45;;
13269;SDS011;6703;51.994;7.570;2022-12-18T07:39:40;27.40;;;8.50;;
13269;SDS011;6703;51.994;7.570;2022-12-18T07:42:10;27.08;;;9.60;;
13269;SDS011;6703;51.994;7.570;2022-12-18T07:44:56;29.83;;;9.85;;
13269;SDS011;6703;51.994;7.570;2022-12-18T07:47:24;26.25;;;9.40;;
13269;SDS011;6703;51.994;7.570;2022-12-18T07:49:53;28.20;;;9.55;;
13269;SDS011;6703;51.994;7.570;2022-12-18T07:52:21;28.17;;;8.98;;
13269;SDS011;6703;51.994;7.570;2022-12-18T07:54:51;27.17;;;8.85;;
13269;SDS011;6703;51.994;7.570;2022-12-18T07:57:21;31.00;;;9.87;;
13269;SDS011;6703;51.994;7.570;2022-12-18T08:00:09;25.58;;;9.98;;
13269;SDS011;6703;51.994;7.570;2022-12-18T08:02:38;26.93;;;9.30;;
13269;SDS011;6703;51.994;7.570;2022-12-18T08:05:07;22.55;;;8.82;;
13269;SDS011;6703;51.994;7.570;2022-12-18T08:07:35;21.60;;;8.10;;
13269;SDS011;6703;51.994;7.570;2022-12-18T08:10:03;21.48;;;7.95;;
13269;SDS011;6703;51.994;7.570;2022-12-18T08:12:32;20.90;;;7.97;;
13269;SDS011;6703;51.994;7.570;2022-12-18T08:15:00;16.85;;;7.30;;
13269;SDS011;6703;51.994;7.570;2022-12-18T08:17:28;26.88;;;8.45;;
13269;SDS011;6703;51.994;7.570;2022-12-18T08:19:57;19.83;;;7.90;;
13269;SDS011;6703;51.994;7.570;2022-12-18T08:22:24;25.42;;;8.25;;
13269;SDS011;6703;51.994;7.570;2022-12-18T08:24:52;16.92;;;7.28;;
13269;SDS011;6703;51.994;7.570;2022-12-18T08:27:19;21.67;;;7.45;;
13269;SDS011;6703;51.994;7.570;2022-12-18T08:29:56;19.10;;;7.50;;
13269;SDS011;6703;51.994;7.570;2022-12-18T08:32:24;17.10;;;6.80;;
13269;SDS011;6703;51.994;7.570;2022-12-18T08:34:53;22.17;;;7.63;;
13269;SDS011;6703;51.994;7.570;2022-12-18T08:37:20;15.43;;;6.97;;
13269;SDS011;6703;51.994;7.570;2022-12-18T08:39:48;22.87;;;7.13;;
13269;SDS011;6703;51.994;7.570;2022-12-18T08:42:16;17.55;;;6.60;;
13269;SDS011;6703;51.994;7.570;2022-12-18T08:45:05;17.52;;;7.38;;
13269;SDS011;6703;51.994;7.570;2022-12-18T08:47:34;19.25;;;8.75;;
13269;SDS011;6703;51.994;7.570;2022-12-18T08:50:02;20.20;;;7.63;;
13269;SDS011;6703;51.994;7.570;2022-12-18T08:52:31;18.83;;;7.38;;
13269;SDS011;6703;51.994;7.570;2022-12-18T08:54:58;19.07;;;7.70;;
13269;SDS011;6703;51.994;7.570;2022-12-18T08:57:26;18.08;;;7.72;;
13269;SDS011;6703;51.994;7.570;2022-12-18T08:59:54;19.63;;;8.05;;
13269;SDS011;6703;51.994;7.570;2022-12-18T09:02:23;20.33;;;7.65;;
13269;SDS011;6703;51.994;7.570;2022-12-18T09:04:51;18.02;;;7.15;;
13269;SDS011;6703;51.994;7.570;2022-12-18T09:07:23;20.27;;;8.07;;
13269;SDS011;6703;51.994;7.570;2022-12-18T09:09:50;21.83;;;8.70;;
13269;SDS011;6703;51.994;7.570;2022-12-18T09:12:18;25.20;;;8.67;;
13269;SDS011;6703;51.994;7.570;2022-12-18T09:14:46;23.52;;;7.97;;
13269;SDS011;6703;51.994;7.570;2022-12-18T09:17:14;22.60;;;8.73;;
13269;SDS011;6703;51.994;7.570;2022-12-18T09:19:43;19.95;;;8.18;;
13269;SDS011;6703;51.994;7.570;2022-12-18T09:22:11;23.20;;;8.73;;
13269;SDS011;6703;51.994;7.570;2022-12-18T09:24:39;18.63;;;7.82;;
13269;SDS011;6703;51.994;7.570;2022-12-18T09:27:06;24.15;;;8.48;;
13269;SDS011;6703;51.994;7.570;2022-12-18T09:29:35;21.45;;;8.13;;
13269;SDS011;6703;51.994;7.570;2022-12-18T09:32:02;17.25;;;7.60;;
13269;SDS011;6703;51.994;7.570;2022-12-18T09:34:31;23.67;;;8.63;;
13269;SDS011;6703;51.994;7.570;2022-12-18T09:37:00;21.10;;;7.90;;
13269;SDS011;6703;51.994;7.570;2022-12-18T09:39:30;21.02;;;8.20;;
13269;SDS011;6703;51.994;7.570;2022-12-18T09:41:57;22.85;;;8.55;;
13269;SDS011;6703;51.994;7.570;2022-12-18T09:44:26;21.67;;;7.95;;
13269;SDS011;6703;51.994;7.570;2022-12-18T09:46:59;22.83;;;7.97;;
13269;SDS011;6703;51.994;7.570;2022-12-18T09:49:31;19.23;;;8.30;;
13269;SDS011;6703;51.994;7.570;2022-12-18T09:52:02;19.80;;;7.35;;
13269;SDS011;6703;51.994;7.570;2022-12-18T09:54:33;20.90;;;7.85;;
13269;SDS011;6703;51.994;7.570;2022-12-18T09:57:03;23.38;;;8.48;;
13269;SDS011;6703;51.994;7.570;2022-12-18T09:59:32;24.08;;;8.68;;
13269;SDS011;6703;51.994;7.570;2022-12-18T10:02:11;20.88;;;8.48;;
13269;SDS011;6703;51.994;7.570;2022-12-18T10:04:41;22.20;;;8.17;;
13269;SDS011;6703;51.994;7.570;2022-12-18T10:07:12;21.80;;;8.45;;
13269;SDS011;6703;51.994;7.570;2022-12-18T10:09:43;26.38;;;8.95;;
13269;SDS011;6703;51.994;7.570;2022-12-18T10:12:18;22.38;;;8.30;;
13269;SDS011;6703;51.994;7.570;2022-12-18T10:14:50;20.63;;;7.97;;
13269;SDS011;6703;51.994;7.570;2022-12-18T10:17:22;20.65;;;7.68;;
13269;SDS011;6703;51.994;7.570;2022-12-18T10:19:54;20.00;;;8.15;;
13269;SDS011;6703;51.994;7.570;2022-12-18T10:22:43;16.30;;;7.17;;
13269;SDS011;6703;51.994;7.570;2022-12-18T10:25:19;24.73;;;8.40;;
13269;SDS011;6703;51.994;7.570;2022-12-18T10:27:51;21.40;;;7.88;;
13269;SDS011;6703;51.994;7.570;2022-12-18T10:30:21;17.83;;;7.45;;
13269;SDS011;6703;51.994;7.570;2022-12-18T10:32:49;22.42;;;7.72;;
13269;SDS011;6703;51.994;7.570;2022-12-18T10:35:20;16.23;;;7.13;;
13269;SDS011;6703;51.994;7.570;2022-12-18T10:38:03;16.53;;;7.07;;
13269;SDS011;6703;51.994;7.570;2022-12-18T10:40:32;20.02;;;7.15;;
13269;SDS011;6703;51.994;7.570;2022-12-18T10:43:05;21.93;;;8.47;;
13269;SDS011;6703;51.994;7.570;2022-12-18T10:45:37;26.33;;;9.15;;
13269;SDS011;6703;51.994;7.570;2022-12-18T10:48:16;19.60;;;7.80;;
13269;SDS011;6703;51.994;7.570;2022-12-18T10:50:46;19.15;;;7.70;;
13269;SDS011;6703;51.994;7.570;2022-12-18T10:53:37;18.48;;;7.15;;
13269;SDS011;6703;51.994;7.570;2022-12-18T10:56:05;16.85;;;7.70;;
13269;SDS011;6703;51.994;7.570;2022-12-18T10:58:36;18.33;;;7.03;;
13269;SDS011;6703;51.994;7.570;2022-12-18T11:01:07;20.27;;;7.82;;
13269;SDS011;6703;51.994;7.570;2022-12-18T11:03:37;17.45;;;6.68;;
13269;SDS011;6703;51.994;7.570;2022-12-18T11:06:11;19.50;;;7.00;;
13269;SDS011;6703;51.994;7.570;2022-12-18T11:08:42;18.80;;;7.00;;
13269;SDS011;6703;51.994;7.570;2022-12-18T11:11:15;15.95;;;7.65;;
13269;SDS011;6703;51.994;7.570;2022-12-18T11:13:49;17.70;;;6.60;;
13269;SDS011;6703;51.994;7.570;2022-12-18T11:16:23;16.73;;;7.07;;
13269;SDS011;6703;51.994;7.570;2022-12-18T11:18:50;21.23;;;7.55;;
13269;SDS011;6703;51.994;7.570;2022-12-18T11:21:18;17.48;;;6.50;;
13269;SDS011;6703;51.994;7.570;2022-12-18T11:23:50;16.70;;;6.80;;
13269;SDS011;6703;51.994;7.570;2022-12-18T11:26:19;17.67;;;7.33;;
13269;SDS011;6703;51.994;7.570;2022-12-18T11:28:49;19.67;;;7.13;;
13269;SDS011;6703;51.994;7.570;2022-12-18T11:31:20;15.45;;;7.03;;
13269;SDS011;6703;51.994;7.570;2022-12-18T11:33:52;15.63;;;7.10;;
13269;SDS011;6703;51.994;7.570;2022-12-18T11:36:44;18.20;;;7.60;;
13269;SDS011;6703;51.994;7.570;2022-12-18T11:39:15;14.93;;;6.70;;
13269;SDS011;6703;51.994;7.570;2022-12-18T11:41:48;19.10;;;7.35;;
13269;SDS011;6703;51.994;7.570;2022-12-18T11:44:41;16.70;;;7.70;;
13269;SDS011;6703;51.994;7.570;2022-12-18T11:47:13;14.63;;;6.63;;
13269;SDS011;6703;51.994;7.570;2022-12-18T11:49:47;16.98;;;7.28;;
13269;SDS011;6703;51.994;7.570;2022-12-18T11:52:17;16.42;;;7.03;;
13269;SDS011;6703;51.994;7.570;2022-12-18T11:54:52;16.07;;;7.00;;
13269;SDS011;6703;51.994;7.570;2022-12-18T11:57:24;19.05;;;7.60;;
13269;SDS011;6703;51.994;7.570;2022-12-18T12:00:02;19.45;;;7.47;;
13269;SDS011;6703;51.994;7.570;2022-12-18T12:02:40;18.45;;;7.43;;
13269;SDS011;6703;51.994;7.570;2022-12-18T12:05:18;18.88;;;6.95;;
13269;SDS011;6703;51.994;7.570;2022-12-18T12:07:54;17.92;;;7.65;;
13269;SDS011;6703;51.994;7.570;2022-12-18T12:10:28;19.45;;;7.47;;
13269;SDS011;6703;51.994;7.570;2022-12-18T12:13:06;17.08;;;7.22;;
13269;SDS011;6703;51.994;7.570;2022-12-18T12:15:45;20.80;;;7.85;;
13269;SDS011;6703;51.994;7.570;2022-12-18T12:18:21;19.15;;;7.43;;
13269;SDS011;6703;51.994;7.570;2022-12-18T12:20:58;20.80;;;7.85;;
13269;SDS011;6703;51.994;7.570;2022-12-18T12:23:35;22.23;;;8.18;;
13269;SDS011;6703;51.994;7.570;2022-12-18T12:26:11;19.83;;;8.10;;
13269;SDS011;6703;51.994;7.570;2022-12-18T12:28:44;21.02;;;8.25;;
13269;SDS011;6703;51.994;7.570;2022-12-18T12:31:20;16.70;;;7.80;;
13269;SDS011;6703;51.994;7.570;2022-12-18T12:33:56;17.17;;;7.43;;
13269;SDS011;6703;51.994;7.570;2022-12-18T12:36:30;20.85;;;8.38;;
13269;SDS011;6703;51.994;7.570;2022-12-18T12:39:05;17.90;;;7.65;;
13269;SDS011;6703;51.994;7.570;2022-12-18T12:41:37;22.07;;;8.67;;
13269;SDS011;6703;51.994;7.570;2022-12-18T12:44:24;20.55;;;7.95;;
13269;SDS011;6703;51.994;7.570;2022-12-18T12:46:55;18.00;;;7.97;;
13269;SDS011;6703;51.994;7.570;2022-12-18T12:49:25;19.50;;;8.10;;
13269;SDS011;6703;51.994;7.570;2022-12-18T12:51:56;19.08;;;8.10;;
13269;SDS011;6703;51.994;7.570;2022-12-18T12:54:32;20.20;;;8.30;;
13269;SDS011;6703;51.994;7.570;2022-12-18T12:57:02;17.58;;;7.75;;
13269;SDS011;6703;51.994;7.570;2022-12-18T12:59:37;20.15;;;8.60;;
13269;SDS011;6703;51.994;7.570;2022-12-18T13:02:12;19.67;;;7.80;;
13269;SDS011;6703;51.994;7.570;2022-12-18T13:04:45;17.30;;;8.18;;
13269;SDS011;6703;51.994;7.570;2022-12-18T13:07:17;15.35;;;7.40;;
13269;SDS011;6703;51.994;7.570;2022-12-18T13:12:52;18.23;;;7.88;;
13269;SDS011;6703;51.994;7.570;2022-12-18T13:15:24;21.60;;;8.50;;
13269;SDS011;6703;51.994;7.570;2022-12-18T13:18:03;19.65;;;8.25;;
13269;SDS011;6703;51.994;7.570;2022-12-18T13:20:33;20.17;;;8.23;;
13269;SDS011;6703;51.994;7.570;2022-12-18T13:23:01;19.50;;;8.18;;
13269;SDS011;6703;51.994;7.570;2022-12-18T13:25:47;20.55;;;8.25;;
13269;SDS011;6703;51.994;7.570;2022-12-18T13:28:16;21.88;;;8.55;;
13269;SDS011;6703;51.994;7.570;2022-12-18T13:30:47;22.15;;;8.05;;
13269;SDS011;6703;51.994;7.570;2022-12-18T13:36:34;16.30;;;7.22;;
13269;SDS011;6703;51.994;7.570;2022-12-18T13:39:09;17.50;;;7.88;;
13269;SDS011;6703;51.994;7.570;2022-12-18T13:45:44;17.05;;;7.47;;
13269;SDS011;6703;51.994;7.570;2022-12-18T13:48:21;15.80;;;6.80;;
13269;SDS011;6703;51.994;7.570;2022-12-18T13:50:57;20.37;;;7.27;;
13269;SDS011;6703;51.994;7.570;2022-12-18T13:53:32;21.70;;;7.60;;
13269;SDS011;6703;51.994;7.570;2022-12-18T13:56:01;15.83;;;6.67;;
13269;SDS011;6703;51.994;7.570;2022-12-18T13:58:30;20.23;;;6.93;;
13269;SDS011;6703;51.994;7.570;2022-12-18T14:00:59;13.57;;;6.60;;
13269;SDS011;6703;51.994;7.570;2022-12-18T14:03:29;16.17;;;6.80;;
13269;SDS011;6703;51.994;7.570;2022-12-18T14:05:59;16.98;;;7.03;;
13269;SDS011;6703;51.994;7.570;2022-12-18T14:08:33;15.73;;;7.10;;
13269;SDS011;6703;51.994;7.570;2022-12-18T14:11:04;16.13;;;6.35;;
13269;SDS011;6703;51.994;7.570;2022-12-18T14:13:33;17.42;;;7.63;;
13269;SDS011;6703;51.994;7.570;2022-12-18T14:16:06;15.07;;;6.68;;
13269;SDS011;6703;51.994;7.570;2022-12-18T14:18:38;15.03;;;6.70;;
13269;SDS011;6703;51.994;7.570;2022-12-18T14:21:16;19.37;;;6.53;;
13269;SDS011;6703;51.994;7.570;2022-12-18T14:23:45;17.03;;;6.37;;
13269;SDS011;6703;51.994;7.570;2022-12-18T14:26:21;14.77;;;5.75;;
13269;SDS011;6703;51.994;7.570;2022-12-18T14:28:53;15.70;;;6.07;;
13269;SDS011;6703;51.994;7.570;2022-12-18T14:31:23;17.27;;;6.80;;
13269;SDS011;6703;51.994;7.570;2022-12-18T14:33:53;17.95;;;6.47;;
13269;SDS011;6703;51.994;7.570;2022-12-18T14:36:22;14.73;;;6.55;;
13269;SDS011;6703;51.994;7.570;2022-12-18T14:38:52;14.15;;;5.85;;
13269;SDS011;6703;51.994;7.570;2022-12-18T14:41:21;15.60;;;6.50;;
13269;SDS011;6703;51.994;7.570;2022-12-18T14:43:50;16.67;;;7.15;;
13269;SDS011;6703;51.994;7.570;2022-12-18T14:46:29;15.68;;;6.22;;
13269;SDS011;6703;51.994;7.570;2022-12-18T14:49:00;15.00;;;6.40;;
13269;SDS011;6703;51.994;7.570;2022-12-18T14:51:30;13.05;;;5.80;;
13269;SDS011;6703;51.994;7.570;2022-12-18T14:54:00;17.08;;;5.93;;
13269;SDS011;6703;51.994;7.570;2022-12-18T14:56:30;18.30;;;6.57;;
13269;SDS011;6703;51.994;7.570;2022-12-18T15:02:51;15.67;;;6.07;;
13269;SDS011;6703;51.994;7.570;2022-12-18T15:05:24;17.20;;;6.65;;
13269;SDS011;6703;51.994;7.570;2022-12-18T15:07:54;16.27;;;6.80;;
13269;SDS011;6703;51.994;7.570;2022-12-18T15:10:23;15.15;;;6.72;;
13269;SDS011;6703;51.994;7.570;2022-12-18T15:13:05;15.63;;;6.37;;
13269;SDS011;6703;51.994;7.570;2022-12-18T15:15:45;15.47;;;6.77;;
13269;SDS011;6703;51.994;7.570;2022-12-18T15:18:16;17.33;;;6.30;;